Waterloo Regional Airport
KALO : now visible

Airfield :











YOU CAN JOIN US ON...

 
LOGIN :

Register | Disclaimer

   EN    FR    IT 

 









Legend :    VFR   Marginal VFR   IFR   Intensive IFR   Very Intensive IFR
Visi :
Ceiling :
>= 8 km
>= 3000ft
5 to 8 km
1000 to 3000 ft
1500m to 5 km
500 to 1000 ft
800 to 1500m
200 to 500 ft
< 800m
< 200 ft
Symbols :   Thunderstorms  Fog  Heavy snow  Heavy precipitations  Wind > 20 kt






- Airport Elevation : 873 ft
- IATA code : ALO


KALO - Waterloo Regional

CURRENT METAR :
  • 030754Z AUTO 00000KT 10SM CLR 17/15 A3009 RMK AO2 SLP183 T01720150

EXPIRED METARs :
  • 030654Z AUTO VRB03KT 10SM CLR 18/16 A3008 RMK AO2 SLP180 T01780156
  • 030554Z AUTO 13005KT 10SM CLR 19/16 A3008 RMK AO2 SLP179 T01940161 10250 20183 403060133 53007

TAF KALO
Valid from the 03 at 06:00 until the 04 at 06:00 UTC


030520Z 0306/0406 14004KT P6SM SKC
FM031700 16010G19KT P6SM FEW040
FM040300 13007KT P6SM FEW250
KZAU FIR / North America



MET'MAP, your aeronautical weather chart ! - Copyright ORBIFLY December 2007 - Disclaimer

ORBIFLY MET'MAP TEAM :

Programming & Development : Alexandra Zaïnal
Original concept : Baudouin d'Aumeries
Technical & hardware support : Manuel Goepfert
Assistance : Marc-Olivier Méhu




SOURCES & CREDITS :

   NOAA       Earth
Advisory